createdAt,value
2022-12-06T00:01:17.004Z,19.08
2022-12-06T00:03:45.887Z,20.10
2022-12-06T00:06:16.349Z,16.85
2022-12-06T00:08:44.536Z,16.48
2022-12-06T00:11:16.729Z,14.98
2022-12-06T00:13:45.378Z,13.48
2022-12-06T00:16:15.506Z,13.38
2022-12-06T00:18:45.324Z,13.10
2022-12-06T00:21:13.990Z,14.27
2022-12-06T00:23:45.518Z,13.05
2022-12-06T00:26:15.579Z,13.70
2022-12-06T00:28:45.042Z,12.73
2022-12-06T00:31:23.043Z,12.05
2022-12-06T00:33:51.019Z,15.13
2022-12-06T00:36:21.337Z,12.65
2022-12-06T00:38:49.386Z,11.35
2022-12-06T00:41:20.116Z,10.80
2022-12-06T00:43:47.987Z,10.27
2022-12-06T00:46:18.320Z,10.70
2022-12-06T00:48:47.239Z,10.70
2022-12-06T00:51:15.773Z,11.45
2022-12-06T00:53:45.074Z,11.88
2022-12-06T00:56:12.563Z,11.35
2022-12-06T00:58:40.318Z,12.70
2022-12-06T01:01:13.213Z,9.50
2022-12-06T01:03:43.792Z,6.55
2022-12-06T01:06:14.046Z,7.03
2022-12-06T01:08:43.375Z,7.20
2022-12-06T01:11:13.507Z,7.18
2022-12-06T01:13:40.782Z,6.07
2022-12-06T01:16:09.714Z,5.70
2022-12-06T01:18:37.520Z,6.53
2022-12-06T01:21:16.311Z,6.22
2022-12-06T01:23:44.924Z,4.90
2022-12-06T01:26:18.234Z,5.90
2022-12-06T01:28:45.624Z,5.20
2022-12-06T01:31:13.243Z,4.60
2022-12-06T01:33:40.425Z,4.70
2022-12-06T01:36:07.534Z,4.00
2022-12-06T01:38:34.740Z,5.10
2022-12-06T01:41:01.597Z,5.38
2022-12-06T01:43:35.078Z,4.72
2022-12-06T01:46:29.722Z,4.75
2022-12-06T01:49:11.664Z,3.45
2022-12-06T01:51:44.274Z,4.47
2022-12-06T01:54:13.823Z,4.55
2022-12-06T01:56:41.096Z,4.15
2022-12-06T01:59:09.409Z,3.95
2022-12-06T02:01:37.598Z,3.83
2022-12-06T02:04:06.850Z,4.10
2022-12-06T02:06:33.996Z,3.95
2022-12-06T02:09:03.930Z,3.47
2022-12-06T02:11:34.964Z,3.80
2022-12-06T02:14:04.620Z,3.15
2022-12-06T02:16:48.155Z,3.20
2022-12-06T02:19:17.882Z,3.65
2022-12-06T02:21:52.313Z,3.40
2022-12-06T02:24:49.963Z,2.97
2022-12-06T02:27:34.900Z,3.75
2022-12-06T02:30:18.178Z,3.15
2022-12-06T02:32:57.443Z,2.90
2022-12-06T02:35:33.886Z,3.13
2022-12-06T02:38:29.115Z,2.67
2022-12-06T02:41:01.229Z,2.53
2022-12-06T02:43:36.265Z,2.30
2022-12-06T02:46:04.456Z,2.58
2022-12-06T02:48:32.538Z,2.13
2022-12-06T02:51:03.293Z,2.10
2022-12-06T02:53:33.921Z,1.55
2022-12-06T02:56:01.508Z,1.20
2022-12-06T02:58:28.331Z,1.38
2022-12-06T03:01:01.215Z,1.00
2022-12-06T03:03:28.091Z,1.67
2022-12-06T03:06:03.974Z,1.38
2022-12-06T03:08:42.663Z,1.13
2022-12-06T03:11:10.559Z,1.10
2022-12-06T03:13:46.336Z,1.25
2022-12-06T03:16:21.254Z,1.27
2022-12-06T03:19:05.996Z,1.17
2022-12-06T03:21:42.792Z,1.30
2022-12-06T03:24:13.744Z,1.23
2022-12-06T03:26:42.716Z,0.80
2022-12-06T03:29:10.899Z,0.90
2022-12-06T03:31:41.086Z,0.85
2022-12-06T03:34:16.542Z,0.80
2022-12-06T03:36:46.048Z,1.55
2022-12-06T03:39:16.091Z,0.90
2022-12-06T03:41:55.385Z,1.38
2022-12-06T03:44:23.403Z,2.45
2022-12-06T03:46:59.243Z,3.10
2022-12-06T03:49:46.995Z,4.03
2022-12-06T03:52:13.884Z,4.88
2022-12-06T03:54:41.698Z,4.90
2022-12-06T03:57:09.526Z,4.70
2022-12-06T03:59:36.380Z,5.35
2022-12-06T04:02:03.234Z,5.38
2022-12-06T04:04:30.102Z,27.58
2022-12-06T04:06:56.917Z,16.60
2022-12-06T04:09:42.442Z,3.80
2022-12-06T04:12:29.247Z,2.85
2022-12-06T04:14:56.138Z,3.42
2022-12-06T04:17:41.743Z,2.97
2022-12-06T04:20:08.815Z,2.88
2022-12-06T04:22:53.945Z,2.30
2022-12-06T04:25:20.941Z,2.35
2022-12-06T04:28:06.368Z,5.40
2022-12-06T04:30:51.477Z,2.78
2022-12-06T04:33:37.035Z,2.53
2022-12-06T04:36:22.333Z,2.75
2022-12-06T04:38:49.232Z,2.20
2022-12-06T04:41:34.574Z,1.95
2022-12-06T04:44:01.408Z,2.35
2022-12-06T04:46:28.269Z,2.10
2022-12-06T04:48:55.149Z,2.72
2022-12-06T04:51:22.154Z,1.88
2022-12-06T04:53:49.286Z,1.88
2022-12-06T04:56:16.191Z,2.13
2022-12-06T04:58:43.286Z,2.50
2022-12-06T05:01:10.324Z,2.85
2022-12-06T05:03:43.765Z,3.55
2022-12-06T05:06:11.500Z,2.85
2022-12-06T05:08:38.476Z,3.50
2022-12-06T05:11:05.505Z,3.58
2022-12-06T05:13:32.424Z,2.08
2022-12-06T05:16:02.011Z,2.35
2022-12-06T05:18:29.302Z,2.05
2022-12-06T05:21:13.938Z,1.50
2022-12-06T05:23:41.133Z,1.38
2022-12-06T05:26:12.472Z,1.35
2022-12-06T05:28:39.806Z,0.98
2022-12-06T05:31:07.327Z,1.00
2022-12-06T05:33:34.938Z,1.08
2022-12-06T05:36:08.235Z,1.05
2022-12-06T05:38:35.148Z,0.90
2022-12-06T05:41:02.729Z,1.08
2022-12-06T05:43:29.766Z,0.80
2022-12-06T05:45:57.540Z,0.80
2022-12-06T05:48:25.901Z,1.00
2022-12-06T05:50:53.825Z,0.98
2022-12-06T05:53:21.705Z,1.98
2022-12-06T05:55:48.976Z,2.03
2022-12-06T05:58:16.541Z,1.90
2022-12-06T06:00:47.750Z,3.03
2022-12-06T06:03:18.013Z,3.75
2022-12-06T06:05:50.157Z,4.03
2022-12-06T06:08:20.254Z,3.88
2022-12-06T06:10:47.198Z,3.92
2022-12-06T06:13:14.004Z,2.63
2022-12-06T06:15:40.801Z,3.50
2022-12-06T06:18:07.729Z,2.78
2022-12-06T06:20:34.707Z,2.75
2022-12-06T06:23:02.707Z,2.30
2022-12-06T06:25:29.537Z,2.90
2022-12-06T06:28:00.727Z,2.10
2022-12-06T06:30:27.628Z,2.83
2022-12-06T06:32:54.515Z,2.75
2022-12-06T06:35:21.601Z,2.55
2022-12-06T06:37:48.568Z,2.30
2022-12-06T06:40:15.538Z,2.10
2022-12-06T06:42:42.565Z,2.50
2022-12-06T06:45:10.018Z,2.33
2022-12-06T06:47:36.901Z,2.40
2022-12-06T06:50:10.709Z,2.20
2022-12-06T06:52:37.754Z,6.13
2022-12-06T06:55:05.065Z,3.60
2022-12-06T06:57:31.909Z,5.32
2022-12-06T06:59:59.147Z,7.20
2022-12-06T07:02:26.257Z,8.75
2022-12-06T07:04:53.421Z,5.32
2022-12-06T07:07:21.488Z,4.63
2022-12-06T07:09:49.841Z,6.80
2022-12-06T07:12:16.757Z,8.98
2022-12-06T07:14:43.530Z,8.90
2022-12-06T07:17:10.488Z,8.48
2022-12-06T07:19:37.497Z,9.60
2022-12-06T07:22:04.506Z,8.35
2022-12-06T07:24:33.050Z,9.05
2022-12-06T07:27:02.905Z,9.13
2022-12-06T07:29:30.258Z,9.23
2022-12-06T07:31:57.060Z,9.98
2022-12-06T07:34:24.069Z,9.60
2022-12-06T07:36:50.888Z,11.68
2022-12-06T07:39:17.986Z,11.23
2022-12-06T07:42:03.465Z,9.13
2022-12-06T07:44:48.787Z,10.52
2022-12-06T07:47:15.826Z,11.07
2022-12-06T07:49:42.727Z,9.13
2022-12-06T07:52:09.686Z,9.38
2022-12-06T07:54:40.024Z,12.70
2022-12-06T07:57:06.883Z,12.50
2022-12-06T07:59:35.181Z,8.85
2022-12-06T08:02:02.837Z,8.50
2022-12-06T08:04:30.093Z,7.65
2022-12-06T08:06:57.801Z,9.13
2022-12-06T08:09:24.839Z,9.23
2022-12-06T08:11:51.731Z,9.60
2022-12-06T08:14:18.798Z,16.05
2022-12-06T08:16:45.605Z,10.95
2022-12-06T08:19:12.412Z,10.40
2022-12-06T08:21:39.755Z,11.52
2022-12-06T08:24:06.859Z,10.18
2022-12-06T08:26:34.090Z,11.73
2022-12-06T08:29:01.936Z,11.73
2022-12-06T08:31:30.505Z,10.52
2022-12-06T08:33:58.119Z,9.50
2022-12-06T08:36:25.343Z,9.27
2022-12-06T08:38:54.966Z,9.43
2022-12-06T08:44:26.315Z,13.05
2022-12-06T08:46:55.170Z,13.65
2022-12-06T08:49:22.923Z,9.43
2022-12-06T08:51:50.158Z,11.60
2022-12-06T08:54:19.226Z,11.70
2022-12-06T08:56:46.388Z,11.85
2022-12-06T08:59:13.873Z,11.32
2022-12-06T09:01:43.042Z,11.27
2022-12-06T09:04:11.056Z,14.63
2022-12-06T09:06:40.032Z,11.07
2022-12-06T09:09:08.078Z,10.70
2022-12-06T09:11:34.981Z,11.57
2022-12-06T09:14:02.086Z,9.55
2022-12-06T09:16:28.976Z,9.63
2022-12-06T09:18:55.870Z,11.82
2022-12-06T09:21:25.543Z,10.23
2022-12-06T09:23:55.995Z,9.85
2022-12-06T09:26:23.151Z,10.80
2022-12-06T09:28:51.252Z,10.52
2022-12-06T09:31:19.230Z,11.00
2022-12-06T09:33:47.327Z,10.32
2022-12-06T09:36:22.737Z,10.63
2022-12-06T09:38:59.546Z,11.35
2022-12-06T09:41:52.762Z,11.40
2022-12-06T09:44:41.667Z,11.38
2022-12-06T09:47:30.402Z,10.75
2022-12-06T09:50:19.718Z,10.43
2022-12-06T09:52:56.891Z,10.10
2022-12-06T09:55:32.590Z,9.98
2022-12-06T09:58:21.692Z,9.82
2022-12-06T10:00:57.851Z,9.95
2022-12-06T10:03:45.960Z,10.82
2022-12-06T10:06:16.830Z,11.45
2022-12-06T10:09:07.373Z,14.73
2022-12-06T10:12:05.400Z,10.45
2022-12-06T10:14:35.193Z,10.75
2022-12-06T10:17:12.933Z,10.23
2022-12-06T10:19:43.510Z,11.10
2022-12-06T10:22:21.145Z,10.82
2022-12-06T10:25:12.663Z,11.43
2022-12-06T10:27:57.960Z,11.07
2022-12-06T10:30:25.191Z,11.90
2022-12-06T10:33:30.850Z,11.25
2022-12-06T10:36:03.410Z,11.00
2022-12-06T10:38:41.660Z,10.75
2022-12-06T10:41:33.461Z,11.40
2022-12-06T10:44:36.228Z,13.57
2022-12-06T10:47:12.317Z,11.52
2022-12-06T10:49:48.545Z,13.68
2022-12-06T10:52:43.322Z,15.82
2022-12-06T10:55:10.567Z,17.80
2022-12-06T10:57:43.517Z,15.02
2022-12-06T11:00:28.446Z,14.55
2022-12-06T11:03:24.422Z,15.77
2022-12-06T11:05:59.751Z,16.45
2022-12-06T11:08:57.688Z,14.93
2022-12-06T11:11:33.678Z,14.32
2022-12-06T11:14:10.422Z,15.35
2022-12-06T11:16:42.470Z,15.60
2022-12-06T11:19:44.429Z,15.60
2022-12-06T11:22:34.674Z,15.70
2022-12-06T11:25:23.337Z,15.85
2022-12-06T11:28:21.949Z,15.35
2022-12-06T11:30:54.698Z,14.82
2022-12-06T11:33:29.869Z,15.63
2022-12-06T11:35:57.902Z,15.88
2022-12-06T11:38:24.715Z,14.43
2022-12-06T11:40:52.141Z,13.40
2022-12-06T11:43:29.651Z,13.07
2022-12-06T11:45:57.479Z,13.10
2022-12-06T11:48:26.836Z,12.45
2022-12-06T11:50:54.212Z,13.02
2022-12-06T11:53:39.595Z,12.20
2022-12-06T11:56:34.358Z,12.68
2022-12-06T11:59:16.293Z,11.63
2022-12-06T12:01:46.923Z,12.40
2022-12-06T12:04:34.780Z,13.18
2022-12-06T12:07:16.625Z,14.52
2022-12-06T12:09:53.609Z,14.50
2022-12-06T12:13:01.561Z,14.57
2022-12-06T12:15:29.584Z,14.30
2022-12-06T12:17:58.679Z,14.27
2022-12-06T12:20:36.376Z,15.43
2022-12-06T12:23:33.909Z,15.05
2022-12-06T12:26:05.411Z,15.95
2022-12-06T12:28:34.533Z,14.52
2022-12-06T12:31:11.708Z,14.88
2022-12-06T12:33:38.752Z,14.73
2022-12-06T12:36:05.660Z,15.57
2022-12-06T12:38:37.962Z,15.73
2022-12-06T12:44:35.801Z,13.48
2022-12-06T12:47:13.552Z,13.93
2022-12-06T12:49:41.260Z,14.88
2022-12-06T12:53:10.552Z,15.65
2022-12-06T12:55:49.682Z,15.80
2022-12-06T12:58:16.554Z,15.52
2022-12-06T13:00:50.545Z,15.05
2022-12-06T13:03:50.051Z,16.88
2022-12-06T13:06:27.946Z,16.02
2022-12-06T13:08:59.794Z,16.48
2022-12-06T13:11:28.495Z,15.10
2022-12-06T13:13:56.568Z,16.13
2022-12-06T13:16:35.633Z,15.55
2022-12-06T13:19:10.287Z,15.40
2022-12-06T13:21:45.294Z,14.80
2022-12-06T13:24:12.161Z,17.02
2022-12-06T13:26:47.324Z,14.88
2022-12-06T13:29:38.696Z,14.68
2022-12-06T13:32:13.325Z,14.73
2022-12-06T13:34:48.087Z,16.48
2022-12-06T13:37:47.234Z,16.15
2022-12-06T13:41:02.596Z,17.40
2022-12-06T13:43:50.808Z,19.73
2022-12-06T13:46:26.706Z,18.65
2022-12-06T13:48:53.722Z,18.65
2022-12-06T13:51:32.627Z,18.65
2022-12-06T13:54:04.556Z,19.58
2022-12-06T13:56:34.233Z,20.42
2022-12-06T13:59:02.125Z,21.42
2022-12-06T14:01:39.783Z,21.35
2022-12-06T14:07:02.044Z,20.00
2022-12-06T14:09:46.491Z,22.73
2022-12-06T14:12:27.236Z,22.60
2022-12-06T14:15:03.117Z,22.30
2022-12-06T14:20:33.802Z,21.30
2022-12-06T14:23:25.041Z,22.17
2022-12-06T14:25:54.346Z,22.23
2022-12-06T14:28:27.729Z,22.52
2022-12-06T14:31:35.075Z,22.80
2022-12-06T14:34:02.576Z,24.27
2022-12-06T14:36:35.310Z,23.83
2022-12-06T14:39:34.107Z,26.42
2022-12-06T14:43:01.701Z,24.75
2022-12-06T14:45:38.185Z,24.88
2022-12-06T14:48:07.913Z,30.38
2022-12-06T14:50:58.996Z,25.95
2022-12-06T14:53:37.028Z,26.17
2022-12-06T14:56:24.455Z,24.88
2022-12-06T14:58:55.251Z,22.98
2022-12-06T15:01:25.759Z,24.63
2022-12-06T15:04:09.596Z,63.10
2022-12-06T15:06:52.726Z,26.35
2022-12-06T15:09:22.624Z,26.27
2022-12-06T15:12:17.280Z,26.70
2022-12-06T15:14:50.767Z,24.33
2022-12-06T15:17:26.445Z,28.15
2022-12-06T15:19:54.885Z,26.63
2022-12-06T15:22:29.759Z,27.42
2022-12-06T15:25:00.440Z,27.75
2022-12-06T15:27:29.125Z,27.45
2022-12-06T15:30:03.119Z,28.63
2022-12-06T15:32:31.894Z,30.92
2022-12-06T15:35:01.530Z,31.35
2022-12-06T15:37:47.430Z,35.28
2022-12-06T15:40:18.910Z,33.10
2022-12-06T15:42:48.138Z,33.55
2022-12-06T15:45:17.810Z,34.22
2022-12-06T15:47:48.231Z,36.92
2022-12-06T15:50:24.709Z,36.38
2022-12-06T15:55:51.942Z,31.63
2022-12-06T15:58:25.186Z,32.80
2022-12-06T16:00:59.025Z,32.80
2022-12-06T16:03:29.555Z,40.20
2022-12-06T16:06:03.050Z,48.47
2022-12-06T16:08:35.825Z,42.75
2022-12-06T16:11:12.911Z,31.25
2022-12-06T16:13:50.156Z,30.50
2022-12-06T16:19:19.807Z,30.75
2022-12-06T16:21:58.935Z,48.08
2022-12-06T16:24:29.193Z,40.45
2022-12-06T16:27:08.072Z,36.38
2022-12-06T16:29:38.675Z,33.88
2022-12-06T16:32:07.836Z,35.22
2022-12-06T16:34:41.209Z,38.47
2022-12-06T16:37:17.883Z,37.20
2022-12-06T16:39:48.462Z,47.38
2022-12-06T16:45:04.416Z,30.45
2022-12-06T16:53:29.676Z,33.03
2022-12-06T16:56:01.705Z,34.95
2022-12-06T17:01:17.487Z,37.53
2022-12-06T17:04:05.000Z,37.13
2022-12-06T17:06:45.193Z,32.55
2022-12-06T17:09:18.398Z,33.30
2022-12-06T17:12:07.417Z,30.70
2022-12-06T17:14:40.719Z,28.00
2022-12-06T17:17:18.477Z,26.13
2022-12-06T17:19:57.876Z,33.15
2022-12-06T17:25:09.558Z,31.95
2022-12-06T17:27:46.107Z,27.98
2022-12-06T17:39:48.757Z,29.33
2022-12-06T17:49:24.614Z,28.40
2022-12-06T17:57:26.407Z,31.75
2022-12-06T18:00:07.046Z,32.17
2022-12-06T18:02:43.677Z,48.88
2022-12-06T18:05:12.242Z,35.40
2022-12-06T18:07:39.292Z,36.13
2022-12-06T18:10:11.855Z,43.20
2022-12-06T18:12:39.587Z,40.03
2022-12-06T18:15:30.045Z,41.45
2022-12-06T18:18:04.457Z,36.50
2022-12-06T18:20:35.123Z,33.97
2022-12-06T18:25:49.096Z,29.10
2022-12-06T18:28:16.700Z,26.92
2022-12-06T18:30:46.614Z,28.38
2022-12-06T18:33:19.182Z,28.25
2022-12-06T18:35:51.859Z,31.67
2022-12-06T18:38:20.498Z,27.17
2022-12-06T18:40:48.815Z,28.10
2022-12-06T18:43:16.257Z,35.70
2022-12-06T18:45:43.661Z,27.65
2022-12-06T18:48:10.783Z,23.30
2022-12-06T18:50:41.051Z,23.42
2022-12-06T18:53:11.545Z,21.83
2022-12-06T18:55:38.595Z,26.73
2022-12-06T18:58:05.737Z,29.80
2022-12-06T19:00:33.984Z,31.13
2022-12-06T19:03:02.042Z,29.48
2022-12-06T19:05:54.436Z,30.88
2022-12-06T19:08:16.797Z,33.58
2022-12-06T19:10:45.098Z,34.25
2022-12-06T19:13:12.354Z,34.83
2022-12-06T19:15:39.593Z,31.98
2022-12-06T19:18:07.220Z,31.83
2022-12-06T19:20:35.884Z,32.28
2022-12-06T19:23:04.292Z,29.92
2022-12-06T19:25:31.442Z,32.05
2022-12-06T19:27:58.253Z,30.35
2022-12-06T19:30:25.231Z,29.63
2022-12-06T19:32:52.610Z,31.38
2022-12-06T19:35:20.725Z,34.83
2022-12-06T19:37:54.776Z,29.55
2022-12-06T19:40:24.013Z,30.33
2022-12-06T19:43:09.600Z,30.55
2022-12-06T19:45:37.667Z,32.45
2022-12-06T19:48:05.872Z,27.88
2022-12-06T19:50:34.869Z,31.65
2022-12-06T19:53:02.435Z,31.50
2022-12-06T19:55:31.546Z,30.50
2022-12-06T19:58:06.585Z,34.10
2022-12-06T20:00:38.134Z,38.83
2022-12-06T20:03:05.091Z,34.63
2022-12-06T20:05:32.239Z,27.33
2022-12-06T20:08:00.082Z,32.60
2022-12-06T20:10:27.081Z,42.85
2022-12-06T20:12:57.089Z,32.80
2022-12-06T20:15:24.021Z,25.30
2022-12-06T20:17:51.131Z,24.73
2022-12-06T20:20:18.356Z,24.33
2022-12-06T20:22:45.824Z,27.80
2022-12-06T20:25:13.064Z,23.60
2022-12-06T20:27:52.629Z,24.42
2022-12-06T20:30:21.799Z,23.02
2022-12-06T20:32:49.577Z,24.05
2022-12-06T20:35:16.901Z,25.70
2022-12-06T20:37:44.214Z,34.45
2022-12-06T20:40:11.828Z,32.92
2022-12-06T20:42:38.745Z,33.55
2022-12-06T20:45:06.234Z,24.50
2022-12-06T20:47:33.178Z,29.55
2022-12-06T20:50:03.040Z,28.55
2022-12-06T20:52:30.486Z,25.77
2022-12-06T20:54:57.502Z,26.38
2022-12-06T20:57:26.365Z,28.25
2022-12-06T20:59:53.317Z,29.55
2022-12-06T21:02:21.323Z,26.45
2022-12-06T21:04:48.809Z,29.08
2022-12-06T21:07:16.692Z,28.25
2022-12-06T21:09:55.725Z,27.88
2022-12-06T21:15:06.700Z,26.83
2022-12-06T21:17:33.661Z,26.85
2022-12-06T21:20:03.728Z,26.05
2022-12-06T21:22:31.061Z,30.80
2022-12-06T21:24:58.567Z,28.95
2022-12-06T21:27:28.392Z,27.90
2022-12-06T21:29:55.591Z,21.95
2022-12-06T21:32:25.841Z,28.33
2022-12-06T21:34:55.660Z,20.92
2022-12-06T21:37:27.123Z,17.80
2022-12-06T21:39:55.430Z,18.00
2022-12-06T21:42:24.388Z,14.88
2022-12-06T21:44:51.241Z,11.45
2022-12-06T21:47:18.426Z,13.10
2022-12-06T21:49:45.462Z,14.48
2022-12-06T21:55:02.932Z,19.92
2022-12-06T22:02:40.699Z,24.15
2022-12-06T22:05:08.756Z,25.38
2022-12-06T22:07:35.942Z,24.75
2022-12-06T22:10:03.279Z,24.77
2022-12-06T22:12:30.552Z,25.63
2022-12-06T22:14:57.708Z,25.75
2022-12-06T22:17:24.877Z,29.58
2022-12-06T22:19:52.882Z,25.42
2022-12-06T22:22:21.792Z,25.33
2022-12-06T22:24:48.863Z,24.38
2022-12-06T22:27:16.751Z,23.05
2022-12-06T22:29:43.773Z,23.77
2022-12-06T22:32:10.864Z,23.20
2022-12-06T22:34:40.130Z,22.25
2022-12-06T22:37:07.143Z,22.80
2022-12-06T22:39:34.822Z,21.05
2022-12-06T22:42:01.813Z,21.35
2022-12-06T22:44:28.810Z,20.48
2022-12-06T22:46:55.730Z,13.05
2022-12-06T22:49:22.825Z,19.20
2022-12-06T22:51:49.720Z,22.02
2022-12-06T22:54:16.682Z,22.95
2022-12-06T22:56:48.654Z,23.25
2022-12-06T22:59:17.223Z,20.98
2022-12-06T23:01:44.765Z,20.77
2022-12-06T23:04:12.462Z,22.42
2022-12-06T23:06:40.140Z,18.67
2022-12-06T23:09:08.560Z,18.60
2022-12-06T23:11:36.748Z,21.00
2022-12-06T23:14:04.763Z,18.30
2022-12-06T23:16:32.354Z,17.60
2022-12-06T23:19:01.200Z,19.58
2022-12-06T23:21:36.478Z,22.77
2022-12-06T23:24:09.451Z,19.40
2022-12-06T23:26:39.256Z,18.65
2022-12-06T23:29:06.692Z,19.27
2022-12-06T23:31:36.778Z,21.70
2022-12-06T23:34:22.646Z,15.65
2022-12-06T23:36:50.034Z,18.27
2022-12-06T23:39:16.943Z,15.75
2022-12-06T23:41:43.978Z,16.20
2022-12-06T23:44:12.636Z,24.92
2022-12-06T23:46:41.486Z,33.25
2022-12-06T23:49:14.494Z,29.13
2022-12-06T23:51:41.442Z,24.38
2022-12-06T23:54:10.714Z,24.00
2022-12-06T23:56:39.059Z,14.23
2022-12-06T23:59:07.928Z,12.75
